sensor_id;sensor_type;location;lat;lon;timestamp;P1;durP1;ratioP1;P2;durP2;ratioP2
46308;SDS011;32037;50.820;6.494;2023-01-08T00:01:27;2.20;;;1.10;;
46308;SDS011;32037;50.820;6.494;2023-01-08T00:03:57;2.07;;;1.47;;
46308;SDS011;32037;50.820;6.494;2023-01-08T00:06:25;1.70;;;1.53;;
46308;SDS011;32037;50.820;6.494;2023-01-08T00:08:54;1.17;;;1.07;;
46308;SDS011;32037;50.820;6.494;2023-01-08T00:11:23;1.37;;;1.17;;
46308;SDS011;32037;50.820;6.494;2023-01-08T00:13:54;1.17;;;1.07;;
46308;SDS011;32037;50.820;6.494;2023-01-08T00:16:23;1.50;;;1.40;;
46308;SDS011;32037;50.820;6.494;2023-01-08T00:18:52;1.40;;;1.20;;
46308;SDS011;32037;50.820;6.494;2023-01-08T00:21:22;2.90;;;1.27;;
46308;SDS011;32037;50.820;6.494;2023-01-08T00:23:50;1.30;;;1.20;;
46308;SDS011;32037;50.820;6.494;2023-01-08T00:26:19;1.10;;;1.00;;
46308;SDS011;32037;50.820;6.494;2023-01-08T00:28:50;1.97;;;1.30;;
46308;SDS011;32037;50.820;6.494;2023-01-08T00:31:19;1.83;;;1.73;;
46308;SDS011;32037;50.820;6.494;2023-01-08T00:33:48;2.03;;;1.00;;
46308;SDS011;32037;50.820;6.494;2023-01-08T00:36:17;1.50;;;1.27;;
46308;SDS011;32037;50.820;6.494;2023-01-08T00:38:47;1.73;;;1.17;;
46308;SDS011;32037;50.820;6.494;2023-01-08T00:41:16;1.80;;;1.13;;
46308;SDS011;32037;50.820;6.494;2023-01-08T00:43:44;2.03;;;1.53;;
46308;SDS011;32037;50.820;6.494;2023-01-08T00:46:13;1.20;;;1.10;;
46308;SDS011;32037;50.820;6.494;2023-01-08T00:48:41;1.17;;;1.07;;
46308;SDS011;32037;50.820;6.494;2023-01-08T00:51:10;1.13;;;1.00;;
46308;SDS011;32037;50.820;6.494;2023-01-08T00:53:39;0.93;;;0.90;;
46308;SDS011;32037;50.820;6.494;2023-01-08T00:56:09;1.43;;;1.20;;
46308;SDS011;32037;50.820;6.494;2023-01-08T00:58:38;2.47;;;1.43;;
46308;SDS011;32037;50.820;6.494;2023-01-08T01:01:09;1.30;;;1.20;;
46308;SDS011;32037;50.820;6.494;2023-01-08T01:03:39;1.60;;;1.50;;
46308;SDS011;32037;50.820;6.494;2023-01-08T01:06:09;1.20;;;1.10;;
46308;SDS011;32037;50.820;6.494;2023-01-08T01:08:38;1.40;;;1.30;;
46308;SDS011;32037;50.820;6.494;2023-01-08T01:11:09;1.70;;;1.20;;
46308;SDS011;32037;50.820;6.494;2023-01-08T01:13:40;1.00;;;0.90;;
46308;SDS011;32037;50.820;6.494;2023-01-08T01:16:09;1.50;;;1.40;;
46308;SDS011;32037;50.820;6.494;2023-01-08T01:18:40;1.40;;;1.30;;
46308;SDS011;32037;50.820;6.494;2023-01-08T01:21:10;2.30;;;1.27;;
46308;SDS011;32037;50.820;6.494;2023-01-08T01:23:39;1.53;;;1.37;;
46308;SDS011;32037;50.820;6.494;2023-01-08T01:26:14;1.47;;;1.10;;
46308;SDS011;32037;50.820;6.494;2023-01-08T01:28:45;1.60;;;1.23;;
46308;SDS011;32037;50.820;6.494;2023-01-08T01:31:14;1.43;;;1.30;;
46308;SDS011;32037;50.820;6.494;2023-01-08T01:33:44;2.17;;;1.33;;
46308;SDS011;32037;50.820;6.494;2023-01-08T01:36:14;1.60;;;1.40;;
46308;SDS011;32037;50.820;6.494;2023-01-08T01:38:43;1.40;;;1.30;;
46308;SDS011;32037;50.820;6.494;2023-01-08T01:41:18;1.93;;;1.23;;
46308;SDS011;32037;50.820;6.494;2023-01-08T01:43:50;1.17;;;1.07;;
46308;SDS011;32037;50.820;6.494;2023-01-08T01:46:24;1.30;;;1.03;;
46308;SDS011;32037;50.820;6.494;2023-01-08T01:49:05;2.27;;;1.10;;
46308;SDS011;32037;50.820;6.494;2023-01-08T01:51:37;1.33;;;1.23;;
46308;SDS011;32037;50.820;6.494;2023-01-08T01:54:10;1.47;;;1.20;;
46308;SDS011;32037;50.820;6.494;2023-01-08T01:56:41;1.43;;;1.33;;
46308;SDS011;32037;50.820;6.494;2023-01-08T01:59:10;1.70;;;1.07;;
46308;SDS011;32037;50.820;6.494;2023-01-08T02:01:39;1.40;;;1.00;;
46308;SDS011;32037;50.820;6.494;2023-01-08T02:04:09;1.33;;;1.23;;
46308;SDS011;32037;50.820;6.494;2023-01-08T02:06:40;1.50;;;1.30;;
46308;SDS011;32037;50.820;6.494;2023-01-08T02:09:13;1.60;;;1.00;;
46308;SDS011;32037;50.820;6.494;2023-01-08T02:11:49;3.33;;;1.93;;
46308;SDS011;32037;50.820;6.494;2023-01-08T02:14:37;1.50;;;1.27;;
46308;SDS011;32037;50.820;6.494;2023-01-08T02:17:13;1.50;;;1.30;;
46308;SDS011;32037;50.820;6.494;2023-01-08T02:19:46;1.53;;;1.17;;
46308;SDS011;32037;50.820;6.494;2023-01-08T02:22:20;1.03;;;0.93;;
46308;SDS011;32037;50.820;6.494;2023-01-08T02:25:00;1.00;;;0.90;;
46308;SDS011;32037;50.820;6.494;2023-01-08T02:27:35;2.40;;;1.43;;
46308;SDS011;32037;50.820;6.494;2023-01-08T02:30:07;1.10;;;0.83;;
46308;SDS011;32037;50.820;6.494;2023-01-08T02:32:38;1.10;;;1.00;;
46308;SDS011;32037;50.820;6.494;2023-01-08T02:35:08;1.33;;;1.23;;
46308;SDS011;32037;50.820;6.494;2023-01-08T02:37:38;1.03;;;0.83;;
46308;SDS011;32037;50.820;6.494;2023-01-08T02:40:13;1.00;;;0.80;;
46308;SDS011;32037;50.820;6.494;2023-01-08T02:42:55;1.67;;;1.30;;
46308;SDS011;32037;50.820;6.494;2023-01-08T02:45:29;1.20;;;1.00;;
46308;SDS011;32037;50.820;6.494;2023-01-08T02:48:06;1.27;;;1.10;;
46308;SDS011;32037;50.820;6.494;2023-01-08T02:50:39;1.60;;;1.37;;
46308;SDS011;32037;50.820;6.494;2023-01-08T02:53:12;1.33;;;1.07;;
46308;SDS011;32037;50.820;6.494;2023-01-08T02:55:44;0.87;;;0.87;;
46308;SDS011;32037;50.820;6.494;2023-01-08T02:58:23;1.43;;;0.90;;
46308;SDS011;32037;50.820;6.494;2023-01-08T03:00:56;1.30;;;1.20;;
46308;SDS011;32037;50.820;6.494;2023-01-08T03:03:29;1.20;;;1.10;;
46308;SDS011;32037;50.820;6.494;2023-01-08T03:05:59;1.43;;;0.80;;
46308;SDS011;32037;50.820;6.494;2023-01-08T03:08:30;1.53;;;0.93;;
46308;SDS011;32037;50.820;6.494;2023-01-08T03:11:05;1.17;;;1.07;;
46308;SDS011;32037;50.820;6.494;2023-01-08T03:13:39;1.00;;;0.73;;
46308;SDS011;32037;50.820;6.494;2023-01-08T03:16:13;1.43;;;1.20;;
46308;SDS011;32037;50.820;6.494;2023-01-08T03:18:45;3.43;;;0.90;;
46308;SDS011;32037;50.820;6.494;2023-01-08T03:21:18;1.30;;;1.10;;
46308;SDS011;32037;50.820;6.494;2023-01-08T03:23:49;1.07;;;0.97;;
46308;SDS011;32037;50.820;6.494;2023-01-08T03:26:19;1.10;;;0.80;;
46308;SDS011;32037;50.820;6.494;2023-01-08T03:28:53;1.70;;;1.20;;
46308;SDS011;32037;50.820;6.494;2023-01-08T03:31:23;1.77;;;1.20;;
46308;SDS011;32037;50.820;6.494;2023-01-08T03:33:54;1.03;;;0.90;;
46308;SDS011;32037;50.820;6.494;2023-01-08T03:36:24;2.50;;;1.10;;
46308;SDS011;32037;50.820;6.494;2023-01-08T03:38:58;1.10;;;1.00;;
46308;SDS011;32037;50.820;6.494;2023-01-08T03:41:31;1.10;;;1.00;;
46308;SDS011;32037;50.820;6.494;2023-01-08T03:44:03;1.13;;;0.60;;
46308;SDS011;32037;50.820;6.494;2023-01-08T03:46:33;2.23;;;1.37;;
46308;SDS011;32037;50.820;6.494;2023-01-08T03:49:05;1.30;;;1.20;;
46308;SDS011;32037;50.820;6.494;2023-01-08T03:51:39;1.10;;;1.00;;
46308;SDS011;32037;50.820;6.494;2023-01-08T03:54:08;1.00;;;0.90;;
46308;SDS011;32037;50.820;6.494;2023-01-08T03:56:40;1.70;;;1.37;;
46308;SDS011;32037;50.820;6.494;2023-01-08T03:59:10;1.30;;;1.20;;
46308;SDS011;32037;50.820;6.494;2023-01-08T04:01:39;2.60;;;1.17;;
46308;SDS011;32037;50.820;6.494;2023-01-08T04:04:09;1.50;;;1.00;;
46308;SDS011;32037;50.820;6.494;2023-01-08T04:06:38;1.10;;;0.80;;
46308;SDS011;32037;50.820;6.494;2023-01-08T04:09:06;1.00;;;0.90;;
46308;SDS011;32037;50.820;6.494;2023-01-08T04:11:35;1.20;;;0.90;;
46308;SDS011;32037;50.820;6.494;2023-01-08T04:14:04;1.60;;;0.80;;
46308;SDS011;32037;50.820;6.494;2023-01-08T04:19:03;1.30;;;1.20;;
46308;SDS011;32037;50.820;6.494;2023-01-08T04:21:32;2.20;;;1.20;;
46308;SDS011;32037;50.820;6.494;2023-01-08T04:24:00;1.20;;;0.90;;
46308;SDS011;32037;50.820;6.494;2023-01-08T04:26:29;1.40;;;1.00;;
46308;SDS011;32037;50.820;6.494;2023-01-08T04:28:57;1.47;;;1.00;;
46308;SDS011;32037;50.820;6.494;2023-01-08T04:31:28;0.93;;;0.70;;
46308;SDS011;32037;50.820;6.494;2023-01-08T04:33:58;1.23;;;1.03;;
46308;SDS011;32037;50.820;6.494;2023-01-08T04:36:27;0.93;;;0.90;;
46308;SDS011;32037;50.820;6.494;2023-01-08T04:38:55;1.37;;;1.10;;
46308;SDS011;32037;50.820;6.494;2023-01-08T04:41:24;1.30;;;1.00;;
46308;SDS011;32037;50.820;6.494;2023-01-08T04:43:52;1.47;;;0.87;;
46308;SDS011;32037;50.820;6.494;2023-01-08T04:46:21;0.83;;;0.80;;
46308;SDS011;32037;50.820;6.494;2023-01-08T04:48:49;0.80;;;0.63;;
46308;SDS011;32037;50.820;6.494;2023-01-08T04:51:19;1.00;;;0.90;;
46308;SDS011;32037;50.820;6.494;2023-01-08T04:53:48;1.27;;;0.90;;
46308;SDS011;32037;50.820;6.494;2023-01-08T04:56:17;1.90;;;1.17;;
46308;SDS011;32037;50.820;6.494;2023-01-08T04:58:45;1.23;;;1.13;;
46308;SDS011;32037;50.820;6.494;2023-01-08T05:01:15;1.30;;;0.90;;
46308;SDS011;32037;50.820;6.494;2023-01-08T05:03:46;1.50;;;0.83;;
46308;SDS011;32037;50.820;6.494;2023-01-08T05:06:15;0.93;;;0.73;;
46308;SDS011;32037;50.820;6.494;2023-01-08T05:08:45;1.60;;;1.00;;
46308;SDS011;32037;50.820;6.494;2023-01-08T05:11:13;1.77;;;0.97;;
46308;SDS011;32037;50.820;6.494;2023-01-08T05:13:42;0.70;;;0.70;;
46308;SDS011;32037;50.820;6.494;2023-01-08T05:16:13;1.00;;;0.90;;
46308;SDS011;32037;50.820;6.494;2023-01-08T05:18:42;1.33;;;0.93;;
46308;SDS011;32037;50.820;6.494;2023-01-08T05:21:11;1.20;;;0.80;;
46308;SDS011;32037;50.820;6.494;2023-01-08T05:23:42;1.00;;;0.70;;
46308;SDS011;32037;50.820;6.494;2023-01-08T05:26:13;1.47;;;0.97;;
46308;SDS011;32037;50.820;6.494;2023-01-08T05:28:43;0.60;;;0.60;;
46308;SDS011;32037;50.820;6.494;2023-01-08T05:31:12;1.20;;;0.83;;
46308;SDS011;32037;50.820;6.494;2023-01-08T05:33:41;0.93;;;0.83;;
46308;SDS011;32037;50.820;6.494;2023-01-08T05:36:10;1.00;;;0.80;;
46308;SDS011;32037;50.820;6.494;2023-01-08T05:38:39;1.00;;;0.90;;
46308;SDS011;32037;50.820;6.494;2023-01-08T05:41:09;1.40;;;1.00;;
46308;SDS011;32037;50.820;6.494;2023-01-08T05:43:38;0.90;;;0.80;;
46308;SDS011;32037;50.820;6.494;2023-01-08T05:46:07;1.33;;;0.90;;
46308;SDS011;32037;50.820;6.494;2023-01-08T05:48:35;1.10;;;0.80;;
46308;SDS011;32037;50.820;6.494;2023-01-08T05:51:04;0.90;;;0.70;;
46308;SDS011;32037;50.820;6.494;2023-01-08T05:53:33;1.03;;;0.93;;
46308;SDS011;32037;50.820;6.494;2023-01-08T05:56:02;1.10;;;0.70;;
46308;SDS011;32037;50.820;6.494;2023-01-08T05:58:36;1.20;;;0.80;;
46308;SDS011;32037;50.820;6.494;2023-01-08T06:01:06;1.10;;;0.73;;
46308;SDS011;32037;50.820;6.494;2023-01-08T06:03:36;1.80;;;0.90;;
46308;SDS011;32037;50.820;6.494;2023-01-08T06:06:06;0.97;;;0.77;;
46308;SDS011;32037;50.820;6.494;2023-01-08T06:08:36;1.30;;;0.80;;
46308;SDS011;32037;50.820;6.494;2023-01-08T06:11:05;1.27;;;0.90;;
46308;SDS011;32037;50.820;6.494;2023-01-08T06:13:36;1.23;;;1.00;;
46308;SDS011;32037;50.820;6.494;2023-01-08T06:16:08;1.20;;;0.83;;
46308;SDS011;32037;50.820;6.494;2023-01-08T06:18:37;0.87;;;0.80;;
46308;SDS011;32037;50.820;6.494;2023-01-08T06:21:06;0.80;;;0.70;;
46308;SDS011;32037;50.820;6.494;2023-01-08T06:23:34;1.50;;;0.83;;
46308;SDS011;32037;50.820;6.494;2023-01-08T06:26:03;0.80;;;0.57;;
46308;SDS011;32037;50.820;6.494;2023-01-08T06:28:32;0.80;;;0.80;;
46308;SDS011;32037;50.820;6.494;2023-01-08T06:31:04;0.87;;;0.87;;
46308;SDS011;32037;50.820;6.494;2023-01-08T06:33:32;1.17;;;0.80;;
46308;SDS011;32037;50.820;6.494;2023-01-08T06:36:01;0.87;;;0.87;;
46308;SDS011;32037;50.820;6.494;2023-01-08T06:38:31;2.10;;;0.97;;
46308;SDS011;32037;50.820;6.494;2023-01-08T06:41:02;0.80;;;0.80;;
46308;SDS011;32037;50.820;6.494;2023-01-08T06:43:31;0.73;;;0.70;;
46308;SDS011;32037;50.820;6.494;2023-01-08T06:46:04;0.80;;;0.73;;
46308;SDS011;32037;50.820;6.494;2023-01-08T06:48:34;0.73;;;0.70;;
46308;SDS011;32037;50.820;6.494;2023-01-08T06:51:03;0.73;;;0.73;;
46308;SDS011;32037;50.820;6.494;2023-01-08T06:53:33;0.93;;;0.70;;
46308;SDS011;32037;50.820;6.494;2023-01-08T06:56:02;1.20;;;0.70;;
46308;SDS011;32037;50.820;6.494;2023-01-08T06:58:33;1.00;;;0.77;;
46308;SDS011;32037;50.820;6.494;2023-01-08T07:01:02;0.90;;;0.73;;
46308;SDS011;32037;50.820;6.494;2023-01-08T07:03:36;0.97;;;0.77;;
46308;SDS011;32037;50.820;6.494;2023-01-08T07:06:04;0.80;;;0.80;;
46308;SDS011;32037;50.820;6.494;2023-01-08T07:08:33;0.97;;;0.77;;
46308;SDS011;32037;50.820;6.494;2023-01-08T07:11:02;1.07;;;0.67;;
46308;SDS011;32037;50.820;6.494;2023-01-08T07:13:31;2.90;;;0.93;;
46308;SDS011;32037;50.820;6.494;2023-01-08T07:16:05;1.20;;;1.00;;
46308;SDS011;32037;50.820;6.494;2023-01-08T07:18:34;1.37;;;0.97;;
46308;SDS011;32037;50.820;6.494;2023-01-08T07:21:02;1.00;;;0.87;;
46308;SDS011;32037;50.820;6.494;2023-01-08T07:23:32;0.97;;;0.73;;
46308;SDS011;32037;50.820;6.494;2023-01-08T07:26:02;1.70;;;0.90;;
46308;SDS011;32037;50.820;6.494;2023-01-08T07:28:32;0.70;;;0.70;;
46308;SDS011;32037;50.820;6.494;2023-01-08T07:31:01;2.13;;;0.97;;
46308;SDS011;32037;50.820;6.494;2023-01-08T07:33:32;2.40;;;1.07;;
46308;SDS011;32037;50.820;6.494;2023-01-08T07:36:01;1.10;;;0.70;;
46308;SDS011;32037;50.820;6.494;2023-01-08T07:38:31;2.30;;;1.10;;
46308;SDS011;32037;50.820;6.494;2023-01-08T07:41:00;0.90;;;0.70;;
46308;SDS011;32037;50.820;6.494;2023-01-08T07:43:28;1.03;;;0.67;;
46308;SDS011;32037;50.820;6.494;2023-01-08T07:45:57;0.60;;;0.60;;
46308;SDS011;32037;50.820;6.494;2023-01-08T07:48:28;1.30;;;0.80;;
46308;SDS011;32037;50.820;6.494;2023-01-08T07:51:00;1.57;;;1.23;;
46308;SDS011;32037;50.820;6.494;2023-01-08T07:53:31;0.63;;;0.63;;
46308;SDS011;32037;50.820;6.494;2023-01-08T07:56:03;1.70;;;1.07;;
46308;SDS011;32037;50.820;6.494;2023-01-08T07:58:33;0.80;;;0.60;;
46308;SDS011;32037;50.820;6.494;2023-01-08T08:01:02;0.87;;;0.80;;
46308;SDS011;32037;50.820;6.494;2023-01-08T08:03:32;1.03;;;0.70;;
46308;SDS011;32037;50.820;6.494;2023-01-08T08:06:03;1.43;;;0.93;;
46308;SDS011;32037;50.820;6.494;2023-01-08T08:08:33;1.17;;;0.93;;
46308;SDS011;32037;50.820;6.494;2023-01-08T08:11:01;1.07;;;0.97;;
46308;SDS011;32037;50.820;6.494;2023-01-08T08:13:30;0.70;;;0.70;;
46308;SDS011;32037;50.820;6.494;2023-01-08T08:16:02;0.90;;;0.77;;
46308;SDS011;32037;50.820;6.494;2023-01-08T08:18:31;1.03;;;0.87;;
46308;SDS011;32037;50.820;6.494;2023-01-08T08:20:59;1.07;;;0.90;;
46308;SDS011;32037;50.820;6.494;2023-01-08T08:23:30;2.00;;;1.07;;
46308;SDS011;32037;50.820;6.494;2023-01-08T08:26:02;1.10;;;0.70;;
46308;SDS011;32037;50.820;6.494;2023-01-08T08:28:33;0.90;;;0.90;;
46308;SDS011;32037;50.820;6.494;2023-01-08T08:31:02;1.63;;;0.80;;
46308;SDS011;32037;50.820;6.494;2023-01-08T08:33:31;1.17;;;0.87;;
46308;SDS011;32037;50.820;6.494;2023-01-08T08:36:00;0.60;;;0.60;;
46308;SDS011;32037;50.820;6.494;2023-01-08T08:38:28;0.77;;;0.60;;
46308;SDS011;32037;50.820;6.494;2023-01-08T08:40:58;1.07;;;0.80;;
46308;SDS011;32037;50.820;6.494;2023-01-08T08:43:27;0.97;;;0.87;;
46308;SDS011;32037;50.820;6.494;2023-01-08T08:45:55;1.90;;;0.90;;
46308;SDS011;32037;50.820;6.494;2023-01-08T08:48:24;1.93;;;0.70;;
46308;SDS011;32037;50.820;6.494;2023-01-08T08:50:53;1.70;;;0.80;;
46308;SDS011;32037;50.820;6.494;2023-01-08T08:53:21;2.60;;;0.60;;
46308;SDS011;32037;50.820;6.494;2023-01-08T08:55:54;1.80;;;0.90;;
46308;SDS011;32037;50.820;6.494;2023-01-08T08:58:25;0.93;;;0.80;;
46308;SDS011;32037;50.820;6.494;2023-01-08T09:00:53;1.30;;;1.20;;
46308;SDS011;32037;50.820;6.494;2023-01-08T09:03:22;1.07;;;0.90;;
46308;SDS011;32037;50.820;6.494;2023-01-08T09:05:51;1.50;;;1.03;;
46308;SDS011;32037;50.820;6.494;2023-01-08T09:08:19;1.40;;;0.80;;
46308;SDS011;32037;50.820;6.494;2023-01-08T09:10:48;1.37;;;0.73;;
46308;SDS011;32037;50.820;6.494;2023-01-08T09:13:18;1.50;;;0.90;;
46308;SDS011;32037;50.820;6.494;2023-01-08T09:15:46;1.03;;;0.80;;
46308;SDS011;32037;50.820;6.494;2023-01-08T09:18:15;1.37;;;0.87;;
46308;SDS011;32037;50.820;6.494;2023-01-08T09:20:46;1.27;;;0.80;;
46308;SDS011;32037;50.820;6.494;2023-01-08T09:23:15;1.20;;;0.90;;
46308;SDS011;32037;50.820;6.494;2023-01-08T09:25:44;0.80;;;0.80;;
46308;SDS011;32037;50.820;6.494;2023-01-08T09:28:12;2.17;;;1.00;;
46308;SDS011;32037;50.820;6.494;2023-01-08T09:30:44;1.73;;;0.70;;
46308;SDS011;32037;50.820;6.494;2023-01-08T09:33:12;1.93;;;0.80;;
46308;SDS011;32037;50.820;6.494;2023-01-08T09:35:42;1.00;;;0.73;;
46308;SDS011;32037;50.820;6.494;2023-01-08T09:38:11;0.90;;;0.77;;
46308;SDS011;32037;50.820;6.494;2023-01-08T09:40:40;1.43;;;0.80;;
46308;SDS011;32037;50.820;6.494;2023-01-08T09:43:15;0.63;;;0.63;;
46308;SDS011;32037;50.820;6.494;2023-01-08T09:45:49;1.23;;;0.60;;
46308;SDS011;32037;50.820;6.494;2023-01-08T09:48:21;1.00;;;0.80;;
46308;SDS011;32037;50.820;6.494;2023-01-08T09:50:53;2.30;;;0.63;;
46308;SDS011;32037;50.820;6.494;2023-01-08T09:53:21;1.60;;;0.93;;
46308;SDS011;32037;50.820;6.494;2023-01-08T09:55:53;0.83;;;0.70;;
46308;SDS011;32037;50.820;6.494;2023-01-08T09:58:42;1.00;;;0.87;;
46308;SDS011;32037;50.820;6.494;2023-01-08T10:01:14;2.93;;;0.73;;
46308;SDS011;32037;50.820;6.494;2023-01-08T10:03:46;0.80;;;0.57;;
46308;SDS011;32037;50.820;6.494;2023-01-08T10:06:17;1.13;;;0.80;;
46308;SDS011;32037;50.820;6.494;2023-01-08T10:08:46;1.10;;;0.90;;
46308;SDS011;32037;50.820;6.494;2023-01-08T10:11:16;2.43;;;0.97;;
46308;SDS011;32037;50.820;6.494;2023-01-08T10:13:47;1.23;;;1.10;;
46308;SDS011;32037;50.820;6.494;2023-01-08T10:16:23;1.27;;;0.60;;
46308;SDS011;32037;50.820;6.494;2023-01-08T10:18:56;0.97;;;0.60;;
46308;SDS011;32037;50.820;6.494;2023-01-08T10:21:27;1.37;;;0.90;;
46308;SDS011;32037;50.820;6.494;2023-01-08T10:23:58;4.77;;;0.97;;
46308;SDS011;32037;50.820;6.494;2023-01-08T10:26:27;1.77;;;1.00;;
46308;SDS011;32037;50.820;6.494;2023-01-08T10:29:11;1.13;;;0.60;;
46308;SDS011;32037;50.820;6.494;2023-01-08T10:31:47;0.97;;;0.60;;
46308;SDS011;32037;50.820;6.494;2023-01-08T10:34:26;0.77;;;0.70;;
46308;SDS011;32037;50.820;6.494;2023-01-08T10:36:59;2.43;;;0.60;;
46308;SDS011;32037;50.820;6.494;2023-01-08T10:39:28;1.53;;;0.90;;
46308;SDS011;32037;50.820;6.494;2023-01-08T10:42:02;0.80;;;0.67;;
46308;SDS011;32037;50.820;6.494;2023-01-08T10:44:33;1.20;;;1.00;;
46308;SDS011;32037;50.820;6.494;2023-01-08T10:47:03;1.10;;;0.90;;
46308;SDS011;32037;50.820;6.494;2023-01-08T10:49:35;0.60;;;0.60;;
46308;SDS011;32037;50.820;6.494;2023-01-08T10:52:18;1.63;;;0.80;;
46308;SDS011;32037;50.820;6.494;2023-01-08T10:54:54;0.70;;;0.40;;
46308;SDS011;32037;50.820;6.494;2023-01-08T10:57:24;0.90;;;0.57;;
46308;SDS011;32037;50.820;6.494;2023-01-08T10:59:54;0.60;;;0.57;;
46308;SDS011;32037;50.820;6.494;2023-01-08T11:02:32;0.77;;;0.43;;
46308;SDS011;32037;50.820;6.494;2023-01-08T11:05:05;0.77;;;0.60;;
46308;SDS011;32037;50.820;6.494;2023-01-08T11:07:37;1.00;;;0.70;;
46308;SDS011;32037;50.820;6.494;2023-01-08T11:10:18;0.70;;;0.70;;
46308;SDS011;32037;50.820;6.494;2023-01-08T11:12:53;3.13;;;0.90;;
46308;SDS011;32037;50.820;6.494;2023-01-08T11:15:31;0.90;;;0.73;;
46308;SDS011;32037;50.820;6.494;2023-01-08T11:18:09;1.07;;;0.63;;
46308;SDS011;32037;50.820;6.494;2023-01-08T11:20:44;0.70;;;0.50;;
46308;SDS011;32037;50.820;6.494;2023-01-08T11:23:14;1.30;;;0.90;;
46308;SDS011;32037;50.820;6.494;2023-01-08T11:25:54;1.00;;;0.80;;
46308;SDS011;32037;50.820;6.494;2023-01-08T11:28:31;1.07;;;0.90;;
46308;SDS011;32037;50.820;6.494;2023-01-08T11:31:10;0.80;;;0.60;;
46308;SDS011;32037;50.820;6.494;2023-01-08T11:33:43;1.10;;;0.60;;
46308;SDS011;32037;50.820;6.494;2023-01-08T11:36:19;1.43;;;0.87;;
46308;SDS011;32037;50.820;6.494;2023-01-08T11:38:52;1.07;;;0.63;;
46308;SDS011;32037;50.820;6.494;2023-01-08T11:41:26;1.70;;;1.47;;
46308;SDS011;32037;50.820;6.494;2023-01-08T11:44:11;0.60;;;0.60;;
46308;SDS011;32037;50.820;6.494;2023-01-08T11:46:56;1.17;;;0.73;;
46308;SDS011;32037;50.820;6.494;2023-01-08T11:49:40;1.50;;;0.77;;
46308;SDS011;32037;50.820;6.494;2023-01-08T11:52:28;1.73;;;0.80;;
46308;SDS011;32037;50.820;6.494;2023-01-08T11:55:19;0.80;;;0.70;;
46308;SDS011;32037;50.820;6.494;2023-01-08T11:58:02;1.27;;;0.73;;
46308;SDS011;32037;50.820;6.494;2023-01-08T12:00:58;1.57;;;0.83;;
46308;SDS011;32037;50.820;6.494;2023-01-08T12:03:46;1.00;;;0.57;;
46308;SDS011;32037;50.820;6.494;2023-01-08T12:06:29;0.50;;;0.40;;
46308;SDS011;32037;50.820;6.494;2023-01-08T12:09:09;3.60;;;0.87;;
46308;SDS011;32037;50.820;6.494;2023-01-08T12:11:47;1.77;;;0.60;;
46308;SDS011;32037;50.820;6.494;2023-01-08T12:14:23;0.87;;;0.70;;
46308;SDS011;32037;50.820;6.494;2023-01-08T12:17:33;0.93;;;0.60;;
46308;SDS011;32037;50.820;6.494;2023-01-08T12:20:15;2.13;;;0.70;;
46308;SDS011;32037;50.820;6.494;2023-01-08T12:22:53;1.17;;;0.60;;
46308;SDS011;32037;50.820;6.494;2023-01-08T12:25:34;0.60;;;0.43;;
46308;SDS011;32037;50.820;6.494;2023-01-08T12:28:16;0.90;;;0.80;;
46308;SDS011;32037;50.820;6.494;2023-01-08T12:31:08;1.07;;;0.73;;
46308;SDS011;32037;50.820;6.494;2023-01-08T12:33:55;1.00;;;0.60;;
46308;SDS011;32037;50.820;6.494;2023-01-08T12:36:28;0.80;;;0.60;;
46308;SDS011;32037;50.820;6.494;2023-01-08T12:39:04;1.17;;;0.87;;
46308;SDS011;32037;50.820;6.494;2023-01-08T12:41:39;0.87;;;0.50;;
46308;SDS011;32037;50.820;6.494;2023-01-08T12:44:11;1.87;;;0.70;;
46308;SDS011;32037;50.820;6.494;2023-01-08T12:46:45;0.70;;;0.50;;
46308;SDS011;32037;50.820;6.494;2023-01-08T12:49:16;1.37;;;0.77;;
46308;SDS011;32037;50.820;6.494;2023-01-08T12:51:53;1.10;;;0.70;;
46308;SDS011;32037;50.820;6.494;2023-01-08T12:54:32;0.60;;;0.50;;
46308;SDS011;32037;50.820;6.494;2023-01-08T12:57:09;1.67;;;0.50;;
46308;SDS011;32037;50.820;6.494;2023-01-08T12:59:44;2.00;;;0.97;;
46308;SDS011;32037;50.820;6.494;2023-01-08T13:02:22;1.33;;;0.57;;
46308;SDS011;32037;50.820;6.494;2023-01-08T13:05:08;0.50;;;0.47;;
46308;SDS011;32037;50.820;6.494;2023-01-08T13:07:41;0.93;;;0.57;;
46308;SDS011;32037;50.820;6.494;2023-01-08T13:10:25;0.80;;;0.50;;
46308;SDS011;32037;50.820;6.494;2023-01-08T13:13:00;0.70;;;0.40;;
46308;SDS011;32037;50.820;6.494;2023-01-08T13:15:30;0.60;;;0.50;;
46308;SDS011;32037;50.820;6.494;2023-01-08T13:18:01;0.80;;;0.60;;
46308;SDS011;32037;50.820;6.494;2023-01-08T13:20:34;0.90;;;0.80;;
46308;SDS011;32037;50.820;6.494;2023-01-08T13:23:03;1.00;;;0.70;;
46308;SDS011;32037;50.820;6.494;2023-01-08T13:25:34;1.10;;;1.00;;
46308;SDS011;32037;50.820;6.494;2023-01-08T13:28:16;0.90;;;0.70;;
46308;SDS011;32037;50.820;6.494;2023-01-08T13:30:53;0.70;;;0.50;;
46308;SDS011;32037;50.820;6.494;2023-01-08T13:33:38;1.10;;;0.60;;
46308;SDS011;32037;50.820;6.494;2023-01-08T13:36:14;0.60;;;0.50;;
46308;SDS011;32037;50.820;6.494;2023-01-08T13:38:58;1.57;;;0.63;;
46308;SDS011;32037;50.820;6.494;2023-01-08T13:41:29;1.00;;;0.90;;
46308;SDS011;32037;50.820;6.494;2023-01-08T13:44:00;1.03;;;0.60;;
46308;SDS011;32037;50.820;6.494;2023-01-08T13:46:31;0.80;;;0.57;;
46308;SDS011;32037;50.820;6.494;2023-01-08T13:49:03;0.70;;;0.63;;
46308;SDS011;32037;50.820;6.494;2023-01-08T13:51:40;0.80;;;0.60;;
46308;SDS011;32037;50.820;6.494;2023-01-08T13:57:03;0.70;;;0.50;;
46308;SDS011;32037;50.820;6.494;2023-01-08T13:59:38;0.70;;;0.60;;
46308;SDS011;32037;50.820;6.494;2023-01-08T14:02:22;1.23;;;0.70;;
46308;SDS011;32037;50.820;6.494;2023-01-08T14:04:53;0.60;;;0.47;;
46308;SDS011;32037;50.820;6.494;2023-01-08T14:07:22;1.27;;;0.60;;
46308;SDS011;32037;50.820;6.494;2023-01-08T14:09:51;0.70;;;0.50;;
46308;SDS011;32037;50.820;6.494;2023-01-08T14:12:22;0.97;;;0.50;;
46308;SDS011;32037;50.820;6.494;2023-01-08T14:14:52;0.70;;;0.60;;
46308;SDS011;32037;50.820;6.494;2023-01-08T14:17:24;0.70;;;0.47;;
46308;SDS011;32037;50.820;6.494;2023-01-08T14:19:56;0.80;;;0.40;;
46308;SDS011;32037;50.820;6.494;2023-01-08T14:22:26;0.83;;;0.63;;
46308;SDS011;32037;50.820;6.494;2023-01-08T14:25:00;1.73;;;0.53;;
46308;SDS011;32037;50.820;6.494;2023-01-08T14:27:31;0.90;;;0.67;;
46308;SDS011;32037;50.820;6.494;2023-01-08T14:30:12;0.77;;;0.60;;
46308;SDS011;32037;50.820;6.494;2023-01-08T14:32:43;0.93;;;0.60;;
46308;SDS011;32037;50.820;6.494;2023-01-08T14:35:13;0.70;;;0.63;;
46308;SDS011;32037;50.820;6.494;2023-01-08T14:37:43;0.70;;;0.60;;
46308;SDS011;32037;50.820;6.494;2023-01-08T14:40:12;0.97;;;0.80;;
46308;SDS011;32037;50.820;6.494;2023-01-08T14:42:43;1.57;;;0.60;;
46308;SDS011;32037;50.820;6.494;2023-01-08T14:45:19;1.17;;;0.70;;
46308;SDS011;32037;50.820;6.494;2023-01-08T14:47:51;0.80;;;0.50;;
46308;SDS011;32037;50.820;6.494;2023-01-08T14:50:22;0.70;;;0.50;;
46308;SDS011;32037;50.820;6.494;2023-01-08T14:52:56;1.77;;;0.80;;
46308;SDS011;32037;50.820;6.494;2023-01-08T14:55:27;1.27;;;0.50;;
46308;SDS011;32037;50.820;6.494;2023-01-08T14:57:57;0.90;;;0.60;;
46308;SDS011;32037;50.820;6.494;2023-01-08T15:00:27;0.60;;;0.50;;
46308;SDS011;32037;50.820;6.494;2023-01-08T15:02:57;1.00;;;0.53;;
46308;SDS011;32037;50.820;6.494;2023-01-08T15:05:26;0.60;;;0.40;;
46308;SDS011;32037;50.820;6.494;2023-01-08T15:07:58;1.00;;;0.40;;
46308;SDS011;32037;50.820;6.494;2023-01-08T15:10:33;0.60;;;0.50;;
46308;SDS011;32037;50.820;6.494;2023-01-08T15:13:10;0.60;;;0.40;;
46308;SDS011;32037;50.820;6.494;2023-01-08T15:15:53;0.47;;;0.37;;
46308;SDS011;32037;50.820;6.494;2023-01-08T15:18:23;0.73;;;0.57;;
46308;SDS011;32037;50.820;6.494;2023-01-08T15:20:52;0.60;;;0.40;;
46308;SDS011;32037;50.820;6.494;2023-01-08T15:23:23;0.60;;;0.60;;